Time;durP1;ratioP1;P1;durP2;ratioP2;P2;SDS_P1;SDS_P2;PMS_P1;PMS_P2;Temp;Humidity;BMP_temperature;BMP_pressure;BME280_temperature;BME280_humidity;BME280_pressure;Samples;Min_cycle;Max_cycle;Signal;HPM_P1;HPM_P2
2021/04/14 00:00:26;;;;;;;10.60;5.72;;;;;;;2.63;74.13;103274.09;5112798;28;20067;-47
2021/04/14 00:02:54;;;;;;;7.35;4.28;;;;;;;2.58;74.38;103273.84;5111482;28;20500;-47
2021/04/14 00:05:23;;;;;;;7.82;4.60;;;;;;;2.55;74.36;103280.56;5113280;28;20062;-49
2021/04/14 00:07:50;;;;;;;9.57;5.05;;;;;;;2.53;74.38;103279.03;5112172;28;20051;-49
2021/04/14 00:10:19;;;;;;;8.32;4.15;;;;;;;2.49;74.24;103285.97;5112712;28;20048;-46
2021/04/14 00:12:46;;;;;;;8.32;5.63;;;;;;;2.46;74.28;103275.31;5112322;28;20047;-46
2021/04/14 00:15:18;;;;;;;8.68;4.20;;;;;;;2.43;74.40;103279.28;5112364;28;20125;-46
2021/04/14 00:17:46;;;;;;;13.43;6.43;;;;;;;2.40;74.60;103277.75;5112767;28;20104;-47
2021/04/14 00:20:14;;;;;;;7.80;4.22;;;;;;;2.37;75.11;103271.78;5112632;28;20488;-47
2021/04/14 00:22:41;;;;;;;8.27;4.07;;;;;;;2.36;75.14;103275.59;5111831;28;20126;-48
2021/04/14 00:25:10;;;;;;;8.07;5.63;;;;;;;2.32;75.11;103269.59;5112646;28;20051;-48
2021/04/14 00:27:38;;;;;;;11.15;5.10;;;;;;;2.29;75.14;103271.84;5112269;28;20485;-48
2021/04/14 00:30:08;;;;;;;7.72;5.18;;;;;;;2.26;75.15;103267.56;5112145;28;20044;-51
2021/04/14 00:32:35;;;;;;;10.07;4.97;;;;;;;2.23;75.49;103265.16;5111880;28;20047;-49
2021/04/14 00:35:04;;;;;;;8.35;4.75;;;;;;;2.20;74.92;103276.56;5112371;28;20431;-47
2021/04/14 00:37:32;;;;;;;9.75;4.65;;;;;;;2.17;75.13;103263.19;5110692;28;20044;-45
2021/04/14 00:39:59;;;;;;;12.05;5.47;;;;;;;2.13;75.11;103263.72;5112402;28;20054;-46
2021/04/14 00:42:26;;;;;;;11.68;5.00;;;;;;;2.11;75.46;103266.66;5112128;28;20096;-46
2021/04/14 00:44:53;;;;;;;9.95;4.60;;;;;;;2.09;75.31;103263.22;5093348;28;20047;-45
2021/04/14 00:47:20;;;;;;;8.68;4.80;;;;;;;2.06;75.12;103261.69;5112108;28;20097;-47
2021/04/14 00:49:47;;;;;;;9.27;5.25;;;;;;;2.04;75.15;103262.91;5111889;28;20040;-48
2021/04/14 00:52:16;;;;;;;11.68;6.35;;;;;;;2.01;75.53;103266.03;5111756;28;20062;-47
2021/04/14 00:54:43;;;;;;;9.63;5.55;;;;;;;1.96;75.59;103260.25;5108563;28;20041;-47
2021/04/14 00:57:10;;;;;;;13.27;6.30;;;;;;;1.93;75.51;103255.09;5111626;28;20104;-51
2021/04/14 00:59:37;;;;;;;10.38;5.65;;;;;;;1.90;75.48;103264.56;5093175;28;20059;-48
2021/04/14 01:02:05;;;;;;;11.20;6.32;;;;;;;1.88;75.50;103261.16;5111411;28;20445;-47
2021/04/14 01:04:32;;;;;;;7.78;4.75;;;;;;;1.86;75.46;103245.84;5111071;28;20053;-45
2021/04/14 01:07:00;;;;;;;7.88;4.22;;;;;;;1.84;75.39;103256.19;5111975;28;20058;-49
2021/04/14 01:09:27;;;;;;;6.53;4.07;;;;;;;1.84;75.94;103253.44;5111800;28;20048;-44
2021/04/14 01:11:56;;;;;;;9.23;4.55;;;;;;;1.83;76.10;103254.47;5111416;28;20112;-47
2021/04/14 01:14:24;;;;;;;6.50;3.65;;;;;;;1.82;75.98;103250.84;5111666;28;20071;-46
2021/04/14 01:16:50;;;;;;;6.53;3.55;;;;;;;1.82;76.16;103250.00;5111580;28;20462;-46
2021/04/14 01:19:18;;;;;;;5.68;3.40;;;;;;;1.81;75.91;103248.28;5110565;28;20048;-47
2021/04/14 01:21:45;;;;;;;5.97;3.53;;;;;;;1.81;76.32;103253.78;5111728;28;20070;-47
2021/04/14 01:24:15;;;;;;;8.90;4.65;;;;;;;1.79;76.21;103256.75;5111627;28;20039;-46
2021/04/14 01:26:42;;;;;;;6.82;3.38;;;;;;;1.76;76.64;103248.84;5111224;28;20539;-45
2021/04/14 01:29:11;;;;;;;7.82;4.15;;;;;;;1.75;76.10;103246.28;5111208;28;20553;-44
2021/04/14 01:31:38;;;;;;;5.70;3.67;;;;;;;1.73;76.11;103247.31;5111324;28;20051;-49
2021/04/14 01:34:10;;;;;;;8.93;4.57;;;;;;;1.72;76.33;103250.25;5092052;28;20052;-45
2021/04/14 01:36:37;;;;;;;9.43;3.78;;;;;;;1.67;76.80;103242.53;5111695;28;20071;-47
2021/04/14 01:39:08;;;;;;;8.50;4.60;;;;;;;1.66;76.26;103251.81;5110849;28;20051;-45
2021/04/14 01:41:35;;;;;;;6.38;4.03;;;;;;;1.64;76.69;103250.28;5111523;28;20458;-49
2021/04/14 01:44:04;;;;;;;7.30;4.55;;;;;;;1.62;76.47;103250.47;5111454;28;20127;-47
2021/04/14 01:46:32;;;;;;;7.40;4.03;;;;;;;1.59;76.90;103239.84;5110809;28;20131;-46
2021/04/14 01:48:59;;;;;;;6.75;4.20;;;;;;;1.58;76.38;103248.28;5111772;28;20127;-48
2021/04/14 01:51:26;;;;;;;9.18;5.20;;;;;;;1.54;76.43;103245.03;5111335;28;20089;-46
2021/04/14 01:53:53;;;;;;;9.00;4.40;;;;;;;1.53;76.44;103245.22;5110946;28;20039;-46
2021/04/14 01:56:21;;;;;;;5.82;3.25;;;;;;;1.51;77.09;103250.91;5110146;28;20090;-45
2021/04/14 01:58:48;;;;;;;8.23;4.60;;;;;;;1.49;76.75;103249.34;5111547;28;20048;-50
2021/04/14 02:01:15;;;;;;;8.73;4.63;;;;;;;1.45;76.60;103246.09;5110234;28;20408;-46
2021/04/14 02:03:42;;;;;;;7.22;3.75;;;;;;;1.43;76.94;103258.31;5111439;28;20135;-46
2021/04/14 02:06:12;;;;;;;8.32;5.13;;;;;;;1.39;77.26;103257.84;5111138;28;20062;-46
2021/04/14 02:08:39;;;;;;;8.40;4.55;;;;;;;1.36;77.13;103255.44;5110670;28;20492;-45
2021/04/14 02:11:07;;;;;;;7.50;4.40;;;;;;;1.34;76.71;103250.13;5110664;28;20089;-44
2021/04/14 02:13:39;;;;;;;6.68;4.20;;;;;;;1.34;77.16;103252.88;5112792;28;20104;-48
2021/04/14 02:16:07;;;;;;;12.30;5.95;;;;;;;1.31;76.95;103255.97;5114514;28;20043;-47
2021/04/14 02:18:34;;;;;;;9.88;6.53;;;;;;;1.29;77.17;103251.69;5115175;28;20096;-48
2021/04/14 02:21:01;;;;;;;7.45;4.88;;;;;;;1.28;77.05;103255.47;5114956;28;20058;-45
2021/04/14 02:23:32;;;;;;;7.30;4.95;;;;;;;1.24;77.15;103243.97;5114638;28;20373;-50
2021/04/14 02:26:01;;;;;;;11.00;5.93;;;;;;;1.22;77.34;103254.28;5114806;28;20051;-47
2021/04/14 02:28:29;;;;;;;9.10;4.43;;;;;;;1.19;77.76;103253.81;5114455;28;20090;-46
2021/04/14 02:30:57;;;;;;;6.25;3.97;;;;;;;1.17;77.01;103247.63;5115097;28;20041;-45
2021/04/14 02:33:24;;;;;;;7.60;4.90;;;;;;;1.14;77.87;103251.59;5114354;28;20048;-50
2021/04/14 02:35:53;;;;;;;7.97;4.65;;;;;;;1.14;77.50;103257.09;5114028;28;20496;-50
2021/04/14 02:38:22;;;;;;;6.22;4.32;;;;;;;1.12;77.22;103244.56;5114697;28;20051;-46
2021/04/14 02:40:49;;;;;;;7.72;4.60;;;;;;;1.09;78.01;103247.66;5114156;28;20139;-49
2021/04/14 02:43:17;;;;;;;8.98;4.63;;;;;;;1.08;77.10;103243.19;5114223;28;20097;-49
2021/04/14 02:45:47;;;;;;;8.90;4.30;;;;;;;1.06;77.24;103245.25;5114612;28;20072;-44
2021/04/14 02:48:15;;;;;;;7.22;4.07;;;;;;;1.03;77.86;103241.81;5113863;28;20082;-50
2021/04/14 02:50:42;;;;;;;7.13;4.32;;;;;;;1.01;77.86;103246.66;5113958;28;20055;-49
2021/04/14 02:53:09;;;;;;;6.22;3.85;;;;;;;0.99;78.26;103248.75;5114029;28;20051;-50
2021/04/14 02:55:38;;;;;;;8.20;4.60;;;;;;;0.99;77.41;103246.00;5114267;28;20406;-49
2021/04/14 02:58:06;;;;;;;9.43;5.93;;;;;;;0.97;77.32;103245.31;5113430;28;20097;-48
2021/04/14 03:00:33;;;;;;;8.65;6.38;;;;;;;0.97;78.33;103248.06;5113617;28;20461;-46
2021/04/14 03:03:00;;;;;;;8.52;4.50;;;;;;;0.95;77.86;103241.88;5114155;28;20058;-45
2021/04/14 03:05:31;;;;;;;8.98;4.57;;;;;;;0.93;78.39;103241.19;5114135;28;20119;-50
2021/04/14 03:07:58;;;;;;;8.10;4.07;;;;;;;0.90;78.36;103243.44;5113689;28;20513;-45
2021/04/14 03:10:26;;;;;;;9.50;4.47;;;;;;;0.87;77.67;103243.78;5114231;28;20071;-45
2021/04/14 03:12:54;;;;;;;8.30;4.30;;;;;;;0.84;78.18;103238.63;5113829;28;20050;-48
2021/04/14 03:15:23;;;;;;;9.82;4.47;;;;;;;0.82;77.43;103244.31;5113986;28;20044;-47
2021/04/14 03:17:50;;;;;;;9.50;5.68;;;;;;;0.79;77.81;103252.94;5101663;28;20046;-46
2021/04/14 03:20:18;;;;;;;10.23;5.63;;;;;;;0.78;77.82;103256.72;5113642;28;20047;-47
2021/04/14 03:22:46;;;;;;;6.78;4.40;;;;;;;0.76;77.86;103249.66;5113821;28;20052;-50
2021/04/14 03:25:14;;;;;;;7.25;4.03;;;;;;;0.73;78.29;103250.88;5113332;28;20052;-47
2021/04/14 03:27:41;;;;;;;6.55;4.22;;;;;;;0.74;77.95;103248.97;5113767;28;20055;-45
2021/04/14 03:30:10;;;;;;;8.80;4.80;;;;;;;0.72;78.27;103251.91;5113857;28;20044;-49
2021/04/14 03:32:37;;;;;;;7.45;4.30;;;;;;;0.69;77.98;103253.09;5112585;28;20762;-47
2021/04/14 03:35:06;;;;;;;8.57;5.15;;;;;;;0.67;77.48;103255.16;5108906;28;20051;-45
2021/04/14 03:37:32;;;;;;;11.38;5.80;;;;;;;0.66;77.77;103260.84;5113599;28;20644;-48
2021/04/14 03:40:00;;;;;;;9.18;4.97;;;;;;;0.65;78.21;103256.38;5113062;28;20047;-49
2021/04/14 03:42:27;;;;;;;7.25;4.68;;;;;;;0.64;78.44;103260.16;5113731;28;20047;-48
2021/04/14 03:44:55;;;;;;;7.50;4.45;;;;;;;0.63;78.00;103264.78;5113002;28;20055;-47
2021/04/14 03:47:22;;;;;;;8.90;5.32;;;;;;;0.63;78.04;103255.69;5112915;28;20044;-47
2021/04/14 03:49:50;;;;;;;11.10;6.30;;;;;;;0.63;78.25;103259.28;5113254;28;20043;-48
2021/04/14 03:52:18;;;;;;;9.95;5.00;;;;;;;0.62;77.95;103254.81;5113389;28;20051;-48
2021/04/14 03:54:45;;;;;;;7.05;4.25;;;;;;;0.63;77.90;103251.06;5112280;28;20050;-48
2021/04/14 03:57:13;;;;;;;7.07;4.30;;;;;;;0.66;78.10;103258.09;5113180;28;20126;-49
2021/04/14 03:59:39;;;;;;;7.95;4.07;;;;;;;0.65;78.48;103251.72;5112814;28;20072;-47
2021/04/14 04:02:06;;;;;;;6.25;3.60;;;;;;;0.67;78.18;103254.31;5112781;28;20105;-48
2021/04/14 04:04:33;;;;;;;9.60;4.80;;;;;;;0.65;78.15;103250.88;5112251;28;20047;-47
2021/04/14 04:07:00;;;;;;;6.78;4.07;;;;;;;0.64;78.14;103254.66;5112603;28;20500;-46
2021/04/14 04:09:27;;;;;;;6.82;4.00;;;;;;;0.62;78.50;103254.81;5112674;28;20051;-47
2021/04/14 04:11:54;;;;;;;7.20;3.35;;;;;;;0.61;78.04;103255.84;5113104;28;20151;-48
2021/04/14 04:14:24;;;;;;;5.18;3.38;;;;;;;0.60;78.77;103253.31;5112136;28;20063;-49
2021/04/14 04:16:50;;;;;;;5.80;3.70;;;;;;;0.58;78.58;103258.13;5112942;28;20183;-46
2021/04/14 04:19:17;;;;;;;7.13;3.80;;;;;;;0.56;78.41;103255.56;5112661;28;20054;-45
2021/04/14 04:21:44;;;;;;;6.57;3.50;;;;;;;0.54;78.96;103259.50;5112187;28;20080;-48
2021/04/14 04:24:12;;;;;;;4.57;2.70;;;;;;;0.53;78.91;103253.16;5094447;28;20454;-45
2021/04/14 04:26:39;;;;;;;5.97;3.17;;;;;;;0.51;78.77;103255.22;5111508;28;20055;-47
2021/04/14 04:29:07;;;;;;;7.53;4.07;;;;;;;0.51;78.37;103249.72;5112289;28;20051;-46
2021/04/14 04:31:34;;;;;;;6.13;2.65;;;;;;;0.49;79.11;103251.78;5112283;28;20047;-48
2021/04/14 04:34:02;;;;;;;4.78;2.58;;;;;;;0.49;78.64;103256.41;5112522;28;20139;-45
2021/04/14 04:36:28;;;;;;;6.25;2.88;;;;;;;0.48;78.87;103252.81;5110389;28;20069;-46
2021/04/14 04:38:55;;;;;;;5.40;2.90;;;;;;;0.49;79.14;103260.00;5111880;28;20055;-46
2021/04/14 04:41:22;;;;;;;6.95;3.08;;;;;;;0.49;78.71;103259.16;5111530;28;20120;-45
2021/04/14 04:43:49;;;;;;;6.75;3.38;;;;;;;0.46;78.77;103252.13;5110982;28;20051;-46
2021/04/14 04:46:16;;;;;;;5.55;2.80;;;;;;;0.44;78.71;103259.66;5110662;28;20103;-47
2021/04/14 04:48:43;;;;;;;6.22;2.50;;;;;;;0.43;79.31;103262.59;5111209;28;20047;-48
2021/04/14 04:51:10;;;;;;;4.55;2.17;;;;;;;0.42;79.42;103260.88;5111183;28;20040;-49
2021/04/14 04:53:39;;;;;;;5.45;2.20;;;;;;;0.40;78.62;103263.78;5112095;28;20071;-45
2021/04/14 04:56:06;;;;;;;4.10;2.13;;;;;;;0.40;79.48;103263.78;5110881;28;20051;-47
2021/04/14 04:58:33;;;;;;;5.57;2.30;;;;;;;0.41;79.34;103264.66;5112164;28;20054;-49
2021/04/14 05:01:00;;;;;;;4.40;2.25;;;;;;;0.40;79.52;103265.69;5111701;28;20492;-48
2021/04/14 05:03:29;;;;;;;5.97;2.42;;;;;;;0.39;79.02;103261.25;5100087;28;20075;-50
2021/04/14 05:05:59;;;;;;;4.97;1.92;;;;;;;0.40;79.65;103268.44;5093490;28;20059;-45
2021/04/14 05:08:26;;;;;;;4.88;2.28;;;;;;;0.41;78.94;103270.13;5111924;28;20051;-52
2021/04/14 05:10:54;;;;;;;7.00;2.67;;;;;;;0.42;78.96;103263.63;5110959;28;20050;-48
2021/04/14 05:13:22;;;;;;;3.45;1.85;;;;;;;0.43;79.39;103268.06;5108310;28;20483;-48
2021/04/14 05:15:49;;;;;;;3.80;1.90;;;;;;;0.46;79.41;103268.59;5111861;28;20040;-51
2021/04/14 05:18:16;;;;;;;7.00;3.25;;;;;;;0.54;78.88;103278.72;5111067;28;20031;-47
2021/04/14 05:20:44;;;;;;;6.88;2.63;;;;;;;0.68;80.37;103295.34;5111736;28;20048;-48
2021/04/14 05:23:12;;;;;;;7.28;2.38;;;;;;;0.89;80.05;103297.53;5110965;28;20063;-50
2021/04/14 05:25:42;;;;;;;3.80;1.33;;;;;;;1.12;80.35;103292.16;5111279;28;20044;-48
2021/04/14 05:28:11;;;;;;;3.10;0.90;;;;;;;1.33;80.50;103291.56;5111766;28;20051;-46
2021/04/14 05:30:39;;;;;;;2.72;0.60;;;;;;;1.51;80.51;103294.91;5111553;28;20136;-47
2021/04/14 05:33:08;;;;;;;2.00;0.47;;;;;;;1.69;80.24;103295.50;5110824;28;20051;-48
2021/04/14 05:35:35;;;;;;;1.40;0.30;;;;;;;1.83;80.41;103307.63;5111233;28;20047;-48
2021/04/14 05:38:02;;;;;;;1.80;0.40;;;;;;;1.97;79.85;103317.03;5092696;28;20100;-51
2021/04/14 05:40:30;;;;;;;1.15;0.40;;;;;;;2.10;79.97;103328.28;5111137;28;20056;-47
2021/04/14 05:42:57;;;;;;;2.08;0.47;;;;;;;2.21;80.15;103310.47;5111566;28;20048;-50
2021/04/14 05:45:27;;;;;;;1.70;0.75;;;;;;;2.32;79.74;103310.06;5111051;28;20454;-53
2021/04/14 05:47:54;;;;;;;0.63;0.20;;;;;;;2.40;79.04;103305.31;5113448;28;20104;-51
2021/04/14 05:50:24;;;;;;;2.70;0.40;;;;;;;2.52;79.60;103302.13;5115719;28;20059;-48
2021/04/14 05:52:51;;;;;;;2.55;0.40;;;;;;;2.64;79.04;103298.72;5114853;28;20040;-50
2021/04/14 05:55:18;;;;;;;1.95;0.57;;;;;;;2.77;79.04;103306.38;5115645;28;20504;-52
2021/04/14 05:57:46;;;;;;;3.55;0.40;;;;;;;2.89;79.15;103304.88;5115403;28;20071;-51
2021/04/14 06:00:15;;;;;;;1.63;0.40;;;;;;;2.99;79.07;103310.13;5114956;28;20044;-47
2021/04/14 06:02:42;;;;;;;1.58;0.30;;;;;;;3.08;78.78;103307.06;5115266;28;20115;-46
2021/04/14 06:05:12;;;;;;;1.90;0.35;;;;;;;3.21;78.77;103309.16;5115192;28;20058;-49
2021/04/14 06:07:39;;;;;;;1.15;0.32;;;;;;;3.34;78.77;103311.25;5114522;28;20528;-50
2021/04/14 06:10:08;;;;;;;1.77;0.60;;;;;;;3.46;78.26;103320.75;5114411;28;20043;-48
2021/04/14 06:12:35;;;;;;;1.58;0.52;;;;;;;3.56;77.74;103318.56;5115186;28;20054;-49
2021/04/14 06:15:05;;;;;;;2.33;0.43;;;;;;;3.70;77.49;103320.44;5114141;28;20043;-51
2021/04/14 06:17:32;;;;;;;2.78;0.70;;;;;;;3.90;77.30;103322.59;5115210;28;20047;-51
2021/04/14 06:19:59;;;;;;;2.22;0.80;;;;;;;4.11;76.96;103317.09;5114708;28;20075;-52
2021/04/14 06:22:27;;;;;;;2.03;0.50;;;;;;;4.37;76.87;103328.44;5114645;28;20040;-52
2021/04/14 06:24:54;;;;;;;2.53;0.60;;;;;;;4.63;76.21;103326.94;5114784;28;20130;-52
2021/04/14 06:27:31;;;;;;;2.05;0.45;;;;;;;4.75;75.95;103331.75;5115080;28;20054;-50
2021/04/14 06:29:58;;;;;;;4.57;0.50;;;;;;;4.78;75.36;103327.72;5114318;28;20074;-50
2021/04/14 06:32:26;;;;;;;2.45;0.50;;;;;;;4.76;75.05;103338.13;5114595;28;20067;-50
2021/04/14 06:34:53;;;;;;;2.65;0.28;;;;;;;4.71;74.82;103332.34;5114106;28;20103;-53
2021/04/14 06:37:21;;;;;;;1.40;0.30;;;;;;;4.68;74.84;103327.19;5114744;28;20052;-49
2021/04/14 06:39:57;;;;;;;1.25;0.40;;;;;;;4.66;74.88;103329.31;5114534;28;20063;-53
2021/04/14 06:42:43;;;;;;;2.92;0.30;;;;;;;4.65;74.96;103322.06;5114186;28;20434;-52
2021/04/14 06:45:18;;;;;;;2.38;0.30;;;;;;;4.67;74.92;103331.88;5114385;28;20059;-51
2021/04/14 06:48:07;;;;;;;1.67;0.30;;;;;;;4.72;74.78;103328.53;5114825;28;20048;-50
2021/04/14 06:50:37;;;;;;;1.17;0.30;;;;;;;4.77;74.69;103328.78;5113736;28;20039;-49
2021/04/14 06:53:28;;;;;;;4.13;0.50;;;;;;;4.94;74.25;103324.66;5114464;28;20095;-50
2021/04/14 06:55:58;;;;;;;2.55;0.40;;;;;;;5.21;74.29;103325.69;5113451;28;20160;-51
2021/04/14 06:58:36;;;;;;;1.98;0.35;;;;;;;5.66;73.89;103328.91;5113725;28;20104;-47
2021/04/14 07:01:07;;;;;;;2.58;0.38;;;;;;;6.06;72.75;103319.72;5113976;28;20063;-53
2021/04/14 07:03:46;;;;;;;2.13;0.45;;;;;;;6.34;71.12;103327.91;5113962;28;20044;-50
2021/04/14 07:06:18;;;;;;;3.47;0.40;;;;;;;6.50;69.97;103326.63;5095918;28;20487;-50
2021/04/14 07:09:08;;;;;;;1.58;0.30;;;;;;;6.60;69.33;103332.59;5094035;28;20520;-53
2021/04/14 07:11:35;;;;;;;3.33;0.32;;;;;;;6.77;69.06;103327.50;5110270;28;20060;-50
2021/04/14 07:14:02;;;;;;;2.08;0.50;;;;;;;6.96;68.50;103326.66;5114164;28;20067;-55
2021/04/14 07:16:39;;;;;;;2.30;0.40;;;;;;;7.14;68.24;103326.84;5113810;28;20047;-53
2021/04/14 07:19:18;;;;;;;1.40;0.40;;;;;;;7.21;67.95;103327.66;5096007;28;20047;-49
2021/04/14 07:21:50;;;;;;;2.85;0.70;;;;;;;7.21;67.10;103327.66;5113414;28;20047;-50
2021/04/14 07:24:26;;;;;;;3.47;0.50;;;;;;;7.25;67.46;103325.31;5113551;28;20100;-49
2021/04/14 07:26:59;;;;;;;2.53;0.50;;;;;;;7.32;67.54;103330.88;5113673;28;20047;-50
2021/04/14 07:29:33;;;;;;;6.35;0.60;;;;;;;7.43;67.33;103327.41;5095658;28;20385;-51
2021/04/14 07:32:12;;;;;;;3.30;0.50;;;;;;;7.65;67.08;103323.28;5112997;28;20085;-50
2021/04/14 07:35:00;;;;;;;3.53;0.55;;;;;;;7.95;65.74;103326.38;5113614;28;20404;-50
2021/04/14 07:37:35;;;;;;;4.22;0.60;;;;;;;8.24;64.89;103322.97;5113775;28;20400;-50
2021/04/14 07:40:17;;;;;;;3.40;0.47;;;;;;;8.56;63.85;103326.66;5092892;28;20052;-52
2021/04/14 07:42:53;;;;;;;4.82;0.50;;;;;;;8.74;62.76;103320.31;5093026;28;20412;-51
2021/04/14 07:45:28;;;;;;;1.85;0.43;;;;;;;8.86;61.95;103323.19;5112989;28;20048;-50
2021/04/14 07:47:59;;;;;;;3.28;0.50;;;;;;;8.99;61.37;103325.88;5113241;28;20051;-51
2021/04/14 07:50:32;;;;;;;3.70;0.52;;;;;;;9.19;61.20;103328.47;5113678;28;20050;-51
2021/04/14 07:52:59;;;;;;;2.65;0.52;;;;;;;9.40;60.81;103322.44;5112572;28;20465;-50
2021/04/14 07:55:30;;;;;;;2.25;0.40;;;;;;;9.54;60.30;103332.38;5113074;28;20079;-49
2021/04/14 07:58:06;;;;;;;2.58;0.55;;;;;;;9.81;60.24;103321.72;5113026;28;20093;-52
2021/04/14 08:00:37;;;;;;;3.85;0.55;;;;;;;10.05;59.13;103314.34;5112654;28;20055;-50
2021/04/14 08:03:17;;;;;;;3.08;0.60;;;;;;;10.17;58.22;103322.78;5094670;28;20051;-51
2021/04/14 08:05:45;;;;;;;4.75;0.70;;;;;;;10.18;57.90;103313.31;5113051;28;20044;-52
2021/04/14 08:08:18;;;;;;;3.28;0.77;;;;;;;10.24;57.49;103320.75;5112392;28;20052;-49
2021/04/14 08:10:58;;;;;;;3.85;0.70;;;;;;;10.52;56.87;103318.19;5111892;28;20104;-51
2021/04/14 08:13:30;;;;;;;3.85;0.60;;;;;;;10.77;56.22;103304.03;5111962;28;20064;-51
2021/04/14 08:15:57;;;;;;;3.92;0.80;;;;;;;10.76;56.24;103315.44;5112857;28;20118;-56
2021/04/14 08:18:28;;;;;;;2.80;0.65;;;;;;;10.61;55.97;103313.94;5112362;28;20116;-53
2021/04/14 08:21:11;;;;;;;2.40;0.50;;;;;;;10.40;55.69;103314.50;5112401;28;20393;-55
2021/04/14 08:23:40;;;;;;;3.47;0.43;;;;;;;10.12;55.82;103323.47;5112380;28;20055;-55
2021/04/14 08:26:16;;;;;;;3.58;0.88;;;;;;;9.81;56.07;103318.09;5094396;28;20100;-54
2021/04/14 08:28:46;;;;;;;5.03;0.60;;;;;;;9.48;56.84;103318.50;5111484;28;20051;-54
2021/04/14 08:31:19;;;;;;;6.72;0.70;;;;;;;9.24;57.42;103315.53;5112626;28;20096;-52
2021/04/14 08:33:47;;;;;;;4.78;0.60;;;;;;;9.08;57.84;103320.84;5111485;28;20135;-56
2021/04/14 08:36:24;;;;;;;4.65;0.80;;;;;;;8.91;58.04;103321.44;5111409;28;20493;-56
2021/04/14 08:38:51;;;;;;;4.28;0.75;;;;;;;8.73;58.05;103321.38;5112257;28;20401;-53
2021/04/14 08:41:28;;;;;;;4.88;0.60;;;;;;;8.60;58.15;103319.53;5111332;28;20088;-55
2021/04/14 08:44:06;;;;;;;4.20;0.50;;;;;;;8.49;57.74;103319.44;5112123;28;20075;-57
2021/04/14 08:46:37;;;;;;;3.70;0.80;;;;;;;8.43;58.53;103323.09;5112306;28;20497;-53
2021/04/14 08:49:07;;;;;;;3.08;0.50;;;;;;;8.38;58.74;103322.94;5111324;28;20043;-54
2021/04/14 08:51:38;;;;;;;7.32;0.80;;;;;;;8.35;59.09;103315.91;5112100;28;20150;-53
2021/04/14 08:54:07;;;;;;;3.88;0.70;;;;;;;8.29;59.28;103320.38;5111698;28;20044;-51
2021/04/14 08:56:34;;;;;;;2.35;0.38;;;;;;;8.22;59.59;103321.50;5111704;28;20087;-51
2021/04/14 08:59:01;;;;;;;3.58;0.60;;;;;;;8.15;59.64;103323.47;5111768;28;20496;-51
2021/04/14 09:01:31;;;;;;;3.00;0.50;;;;;;;8.21;59.62;103322.56;5093826;28;20473;-52
2021/04/14 09:04:01;;;;;;;2.10;0.40;;;;;;;8.26;59.13;103323.59;5111043;28;20050;-52
2021/04/14 09:06:32;;;;;;;3.38;0.60;;;;;;;8.26;58.58;103326.38;5112004;28;20060;-49
2021/04/14 09:09:03;;;;;;;3.58;0.60;;;;;;;8.13;58.08;103331.19;5111826;28;20048;-52
2021/04/14 09:11:31;;;;;;;2.83;0.52;;;;;;;8.05;58.83;103329.50;5111327;28;20063;-52
2021/04/14 09:14:04;;;;;;;3.63;0.50;;;;;;;8.00;58.70;103329.31;5111452;28;20040;-47
2021/04/14 09:16:35;;;;;;;2.67;0.50;;;;;;;8.03;58.69;103328.03;5107891;28;20064;-51
2021/04/14 09:19:23;;;;;;;2.72;0.40;;;;;;;8.14;58.94;103332.91;5111866;28;20044;-52
2021/04/14 09:21:53;;;;;;;4.50;0.43;;;;;;;8.22;58.13;103333.47;5109498;28;20047;-48
2021/04/14 09:24:52;;;;;;;6.07;0.70;;;;;;;8.29;57.14;103327.88;5111003;28;20047;-52
2021/04/14 09:27:26;;;;;;;1.77;0.40;;;;;;;8.35;57.12;103321.47;5028536;28;20096;-51
2021/04/14 09:30:02;;;;;;;3.78;0.52;;;;;;;8.44;56.76;103324.81;5097352;28;20051;-50
2021/04/14 09:32:52;;;;;;;4.10;0.50;;;;;;;8.48;56.65;103328.84;5100251;28;20204;-51
2021/04/14 09:35:23;;;;;;;2.75;0.50;;;;;;;8.45;56.99;103327.38;5110948;28;20396;-57
2021/04/14 09:37:52;;;;;;;3.90;0.50;;;;;;;8.45;56.66;103332.06;5092867;28;20055;-51
2021/04/14 09:40:29;;;;;;;3.75;0.50;;;;;;;8.51;56.14;103332.03;5111423;28;20043;-56
2021/04/14 09:42:56;;;;;;;2.60;0.50;;;;;;;8.60;56.38;103341.81;5101754;28;20044;-55
2021/04/14 09:45:37;;;;;;;4.60;0.52;;;;;;;8.66;55.29;103342.00;5092623;28;20040;-52
2021/04/14 09:48:17;;;;;;;2.45;0.57;;;;;;;8.62;55.23;103330.44;5101326;28;20050;-50
2021/04/14 09:50:48;;;;;;;2.97;0.40;;;;;;;8.59;55.95;103333.72;5111100;28;20221;-48
2021/04/14 09:53:31;;;;;;;4.50;0.88;;;;;;;8.57;56.38;103325.59;5111042;28;20477;-52
2021/04/14 09:56:07;;;;;;;3.38;0.60;;;;;;;8.54;56.01;103326.03;5110900;28;20439;-51
2021/04/14 09:58:45;;;;;;;2.53;0.50;;;;;;;8.58;56.19;103332.84;5110698;28;20090;-51
2021/04/14 10:01:15;;;;;;;3.63;0.60;;;;;;;8.62;56.55;103328.53;5111077;28;20135;-51
2021/04/14 10:03:45;;;;;;;2.90;0.52;;;;;;;8.66;56.59;103328.06;5111391;28;20100;-51
2021/04/14 10:06:14;;;;;;;2.78;0.60;;;;;;;8.81;56.37;103332.22;5110453;28;20044;-50
2021/04/14 10:08:44;;;;;;;5.97;0.90;;;;;;;9.02;56.11;103325.41;5100323;28;20478;-47
2021/04/14 10:11:29;;;;;;;4.55;0.47;;;;;;;9.08;55.49;103326.41;5110930;28;20043;-52
2021/04/14 10:13:57;;;;;;;4.10;0.68;;;;;;;9.04;55.82;103333.53;5100371;28;20050;-48
2021/04/14 10:16:25;;;;;;;3.28;0.65;;;;;;;9.05;55.80;103327.72;5110837;28;20043;-52
2021/04/14 10:19:01;;;;;;;4.13;0.60;;;;;;;9.05;55.07;103324.94;5099835;28;20048;-52
2021/04/14 10:21:29;;;;;;;4.20;1.35;;;;;;;9.05;55.52;103327.72;5110403;28;20062;-50
2021/04/14 10:24:01;;;;;;;4.55;0.50;;;;;;;9.06;55.57;103325.78;5092859;28;20471;-49
2021/04/14 10:26:32;;;;;;;2.28;0.50;;;;;;;9.02;55.88;103322.63;5110660;28;20105;-49
2021/04/14 10:29:01;;;;;;;4.05;0.50;;;;;;;9.05;55.87;103318.53;5092671;28;20052;-53
2021/04/14 10:31:30;;;;;;;4.70;0.60;;;;;;;9.12;55.41;103322.97;5109566;28;20546;-49
2021/04/14 10:34:07;;;;;;;4.53;0.70;;;;;;;9.10;55.31;103324.25;5088844;28;20062;-51
2021/04/14 10:36:38;;;;;;;4.88;0.60;;;;;;;9.02;55.58;103317.03;5094197;28;20810;-47
2021/04/14 10:39:13;;;;;;;3.10;0.40;;;;;;;8.92;55.83;103323.16;5093190;28;20043;-50
2021/04/14 10:41:42;;;;;;;3.25;0.63;;;;;;;8.85;55.90;103315.91;5093759;28;20048;-48
2021/04/14 10:44:18;;;;;;;4.47;0.68;;;;;;;8.80;55.96;103312.97;5093776;28;20161;-52
2021/04/14 10:46:46;;;;;;;2.17;0.40;;;;;;;8.75;56.13;103318.38;5094159;28;20519;-50
2021/04/14 10:49:22;;;;;;;2.25;0.55;;;;;;;8.68;55.97;103320.34;5093228;28;20572;-49
2021/04/14 10:51:53;;;;;;;4.10;0.50;;;;;;;8.61;56.11;103317.59;5094306;28;20431;-52
2021/04/14 10:54:25;;;;;;;4.00;0.50;;;;;;;8.57;56.53;103319.16;5093577;28;20052;-51
2021/04/14 10:57:02;;;;;;;4.28;0.52;;;;;;;8.48;55.93;103317.72;5093708;28;20055;-51
2021/04/14 10:59:30;;;;;;;2.15;0.65;;;;;;;8.44;55.84;103313.69;5093612;28;20044;-51
2021/04/14 11:01:58;;;;;;;2.65;0.55;;;;;;;8.42;55.75;103313.91;5093103;28;20056;-52
2021/04/14 11:04:36;;;;;;;5.45;0.57;;;;;;;8.48;55.92;103317.72;5093722;28;20469;-53
2021/04/14 11:07:05;;;;;;;4.10;0.60;;;;;;;8.55;55.93;103311.03;5073843;28;20054;-49
2021/04/14 11:09:36;;;;;;;2.53;0.65;;;;;;;8.64;55.59;103311.59;5090460;28;20044;-49
2021/04/14 11:12:07;;;;;;;4.30;0.70;;;;;;;8.72;55.99;103319.69;5073471;28;20052;-47
2021/04/14 11:14:37;;;;;;;4.13;0.43;;;;;;;8.81;55.70;103320.22;5089351;28;20416;-52
2021/04/14 11:17:06;;;;;;;4.80;0.80;;;;;;;8.88;55.46;103323.81;5092798;28;20355;-47
2021/04/14 11:19:34;;;;;;;2.70;0.80;;;;;;;8.93;55.09;103315.66;5093124;28;20113;-49
2021/04/14 11:22:05;;;;;;;4.07;0.80;;;;;;;8.98;55.25;103326.97;5092406;28;20109;-47
2021/04/14 11:24:43;;;;;;;4.40;0.70;;;;;;;9.09;55.56;103315.06;5092768;28;20036;-49
2021/04/14 11:27:16;;;;;;;5.47;0.70;;;;;;;9.27;55.47;103325.38;5093581;28;20513;-52
2021/04/14 11:29:43;;;;;;;4.13;1.40;;;;;;;9.37;54.84;103320.13;5093007;28;20040;-53
2021/04/14 11:32:17;;;;;;;4.72;1.33;;;;;;;9.37;54.56;103322.06;5092422;28;20071;-48
2021/04/14 11:34:56;;;;;;;4.47;0.80;;;;;;;9.28;54.84;103321.50;5112250;28;20054;-46
2021/04/14 11:37:42;;;;;;;3.28;0.70;;;;;;;9.09;54.88;103309.47;5112703;28;20492;-47
2021/04/14 11:40:41;;;;;;;3.28;1.00;;;;;;;9.01;54.58;103314.47;5113056;28;20139;-48
2021/04/14 11:43:32;;;;;;;3.03;0.60;;;;;;;8.99;54.20;103318.34;5113776;28;20051;-50
2021/04/14 11:46:03;;;;;;;4.82;0.70;;;;;;;9.02;54.74;103311.47;5112366;28;20051;-46